Latest Coastal Weather Observations for Flinders Island Airport

IDT60701

Issued at 7:32 pm EST Wednesday 6 May 2026 (issued every 10 minutes, with the page automatically refreshed every 10 minutes)

About coastal observations | Map of coastal stations | Coastal observations for TAS | Marine services | Other Formats
Station Details ID: 099005 Name: FLINDERS ISLAND AIRPORT Lat: -40.09 Lon: 148.00 Height: 9.0 m
Data from the previous 72 hours. | See also: Recent months at Flinders Island Airport
Date/Time
EST
Wind Sea
Height
m
Swell Vis
km
Cloud Weather Temp
°C
Press
MSL
hPa
Rain since
9am
mm
Dir  Spd
kts
Gust
kts
Height
m
Period
s
Dir
06/07:30pm NNW 17 23 - - - - 10 Mostly clear - 13.7 1009.8 1.4
06/07:16pm NNW 15 24 - - - - 10 Mostly clear - 13.4 1009.6 1.4
06/07:04pm NW 22 32 - - - - 5 Mostly clear - 12.6 1010.2 1.2
06/07:00pm NW 24 33 - - - - 4 Mostly clear - 12.8 1010.5 1.0
06/06:58pm WNW 23 33 - - - - 5 Partly cloudy - 12.8 1010.6 0.8
06/06:52pm NW 18 33 - - - - 10 Partly cloudy - 14.5 1010.3 0.0
06/06:51pm NW 17 33 - - - - 10 Mostly clear - 15.5 1010.4 0.0
06/06:30pm NNW 16 25 - - - - 10 Partly cloudy - 15.7 1010.0 0.0
06/06:00pm NW 19 27 - - - - 10 Cloudy - 15.9 1010.3 0.0
06/05:54pm NW 17 27 - - - - 10 Partly cloudy - 15.8 1010.3 0.0
06/05:30pm NW 19 26 - - - - 10 Partly cloudy - 15.7 1010.5 0.0
06/05:08pm NW 20 30 - - - - 10 Partly cloudy - 15.7 1010.6 0.0
06/05:00pm NW 20 26 - - - - 10 Partly cloudy - 15.7 1010.8 0.0
06/04:30pm NW 19 28 - - - - 10 Partly cloudy - 15.8 1011.2 0.0
06/04:00pm NW 21 29 - - - - 10 Partly cloudy - 15.8 1011.6 0.0
06/03:30pm NW 21 31 - - - - 10 Partly cloudy - 15.9 1012.1 0.0
06/03:24pm NW 19 31 - - - - 10 Partly cloudy - 15.8 1012.2 0.0
06/03:00pm NW 20 27 - - - - 10 Cloudy - 16.3 1012.4 0.0
06/02:30pm NW 20 27 - - - - 10 Partly cloudy - 16.1 1012.8 0.0
06/02:00pm NW 20 25 - - - - 10 Partly cloudy - 16.8 1013.0 0.0
06/01:30pm NW 20 27 - - - - 10 Mostly clear - 16.7 1013.4 0.0
06/01:00pm NW 21 28 - - - - 10 Partly cloudy - 16.9 1013.9 0.0
06/12:30pm NW 19 25 - - - - 10 Cloudy - 17.2 1014.4 0.0
06/12:00pm NW 21 26 - - - - 10 Mostly cloudy - 17.4 1015.0 0.0
06/11:30am NW 22 28 - - - - 10 Partly cloudy - 17.1 1015.6 0.0
06/11:00am NW 18 26 - - - - 10 Mostly clear - 17.3 1015.9 0.0
06/10:30am NW 19 24 - - - - 10 Partly cloudy - 17.4 1016.1 0.0
06/10:00am NW 17 22 - - - - 10 Cloudy - 17.4 1016.4 0.0
06/09:30am NW 17 22 - - - - 10 Cloudy - 16.9 1016.7 0.0
06/09:00am NW 17 21 - - - - 10 Cloudy - 16.3 1017.1 0.2
06/08:30am NW 15 20 - - - - 10 Cloudy - 15.9 1017.3 0.2
06/08:02am WNW 15 25 - - - - 10 Cloudy - 15.6 1017.4 0.2
06/08:00am WNW 16 25 - - - - 10 Cloudy - 15.6 1017.4 0.2
06/07:30am WNW 14 18 - - - - 10 Cloudy - 15.4 1017.4 0.2
06/07:00am WNW 14 19 - - - - 10 Cloudy - 15.4 1017.4 0.2
06/06:30am WNW 13 17 - - - - 10 Cloudy - 15.1 1017.4 0.2
06/06:00am WNW 15 23 - - - - 10 Cloudy - 14.7 1017.7 0.2
06/05:30am WNW 13 17 - - - - 10 Mostly clear - 14.9 1017.6 0.2
06/05:00am W 14 18 - - - - 10 Partly cloudy - 15.1 1017.6 0.2
06/04:30am W 14 19 - - - - 10 Cloudy - 15.1 1017.7 0.2
06/04:00am W 18 22 - - - - 10 Cloudy - 15.1 1017.8 0.2
06/03:30am W 16 21 - - - - 10 Cloudy - 15.0 1018.0 0.2
06/03:00am W 16 21 - - - - 10 Cloudy - 15.1 1018.2 0.2
06/02:30am WNW 15 20 - - - - 10 Cloudy - 15.0 1018.4 0.2
06/02:00am WNW 18 22 - - - - 10 Mostly clear - 14.4 1018.9 0.2
06/01:30am W 14 20 - - - - 10 Cloudy - 15.1 1018.8 0.2
06/01:00am W 17 21 - - - - 10 Cloudy - 14.6 1019.0 0.2
06/12:30am W 19 25 - - - - 10 Mostly clear - 14.3 1019.1 0.2
06/12:03am W 17 27 - - - - 10 Partly cloudy - 14.4 1019.0 0.0
06/12:00am WNW 15 19 - - - - 10 Cloudy Recent precip. 14.5 1019.0 0.0
 
Date/Time
EST
Wind Sea
Height
m
Swell Vis
km
Cloud Weather Temp
°C
Press
MSL
hPa
Rain since
9am
mm
Dir  Spd
kts
Gust
kts
Height
m
Period
s
Dir
05/11:30pm W 18 25 - - - - 10 Partly cloudy - 14.1 1019.0 0.0
05/11:27pm W 19 25 - - - - 10 Partly cloudy - 14.2 1019.0 0.0
05/11:16pm W 19 24 - - - - 10 Partly cloudy - 13.9 1019.1 0.0
05/11:00pm WSW 22 27 - - - - 10 Partly cloudy - 14.0 1019.0 0.0
05/10:30pm W 18 29 - - - - 10 Mostly clear - 14.9 1019.1 0.0
05/10:29pm W 17 28 - - - - 10 Mostly clear - 15.0 1019.1 0.0
05/10:00pm W 19 23 - - - - 10 Cloudy - 15.0 1019.1 0.0
05/09:30pm W 21 27 - - - - 10 Partly cloudy - 14.8 1019.1 0.0
05/09:00pm W 20 26 - - - - 10 Mostly cloudy - 14.7 1019.1 0.0
05/08:30pm W 21 27 - - - - 10 Partly cloudy - 14.6 1018.9 0.0
05/08:00pm W 19 26 - - - - 10 Partly cloudy - 14.6 1018.8 0.0
05/07:30pm W 22 28 - - - - 10 Partly cloudy - 14.6 1018.5 0.0
05/07:00pm W 25 30 - - - - 10 Partly cloudy - 14.7 1018.2 0.0
05/06:30pm W 23 28 - - - - 10 Partly cloudy - 14.9 1018.0 0.0
05/06:00pm W 22 30 - - - - 10 Mostly cloudy - 15.1 1017.7 0.0
05/05:30pm W 23 28 - - - - 10 Partly cloudy - 14.9 1017.4 0.0
05/05:00pm W 19 26 - - - - 10 Cloudy - 15.0 1017.1 0.0
05/04:30pm W 23 28 - - - - 10 Partly cloudy - 15.2 1016.6 0.0
05/04:00pm W 25 30 - - - - 10 Partly cloudy - 15.3 1016.1 0.0
05/03:30pm W 25 32 - - - - 10 Partly cloudy - 15.6 1015.8 0.0
05/03:00pm W 25 31 - - - - 10 Partly cloudy - 16.1 1015.2 0.0
05/02:30pm W 25 31 - - - - 10 Partly cloudy - 16.2 1014.8 0.0
05/02:00pm W 23 29 - - - - 10 Partly cloudy - 16.1 1014.3 0.0
05/01:30pm W 23 29 - - - - 10 Mostly clear - 16.4 1014.1 0.0
05/01:00pm W 24 30 - - - - 10 Mostly clear - 16.5 1014.1 0.0
05/12:30pm W 24 29 - - - - 10 Mostly clear - 16.5 1014.1 0.0
05/12:00pm W 23 27 - - - - 10 Partly cloudy - 16.6 1014.0 0.0
05/11:30am W 21 27 - - - - 10 Cloudy - 16.2 1014.0 0.0
05/11:00am W 21 26 - - - - 10 Partly cloudy - 16.1 1013.7 0.0
05/10:30am WSW 23 28 - - - - 10 Mostly clear - 16.1 1013.3 0.0
05/10:27am W 23 28 - - - - 10 Partly cloudy - 15.9 1013.3 0.0
05/10:14am W 24 28 - - - - 10 Partly cloudy - 16.3 1013.0 0.0
05/10:04am WSW 22 29 - - - - 10 Partly cloudy - 16.4 1012.8 0.0
05/10:00am WSW 22 29 - - - - 10 Partly cloudy - 16.3 1012.8 0.0
05/09:48am WSW 21 26 - - - - 10 Partly cloudy - 16.2 1012.5 0.0
05/09:30am WSW 20 24 - - - - 10 Mostly clear - 16.1 1012.2 0.0
05/09:07am WSW 23 28 - - - - 10 Partly cloudy - 15.5 1011.8 0.0
05/09:00am WSW 24 30 - - - - 10 Cloudy Rain 15.5 1011.6 7.2
05/08:30am WSW 21 25 - - - - 10 Partly cloudy - 15.8 1011.2 7.0
05/08:15am WSW 19 23 - - - - 10 Partly cloudy - 15.4 1010.8 7.0
05/08:12am WSW 19 22 - - - - 10 Partly cloudy - 15.4 1010.7 7.0
05/08:00am WSW 19 23 - - - - 10 Partly cloudy - 15.4 1010.4 7.0
05/07:48am WSW 18 22 - - - - 10 Partly cloudy - 15.3 1010.0 7.0
05/07:30am WSW 16 19 - - - - 10 Partly cloudy - 14.8 1009.5 7.0
05/07:00am WSW 18 21 - - - - 10 Partly cloudy - 14.7 1008.7 7.0
05/06:56am SW 17 21 - - - - 10 Partly cloudy - 14.7 1008.6 7.0
05/06:31am SSW 19 26 - - - - 10 Partly cloudy - 14.5 1007.8 7.0
05/06:30am SSW 19 26 - - - - 10 Partly cloudy - 14.5 1007.7 7.0
05/06:00am SSW 20 25 - - - - 10 Cloudy Rain 14.4 1006.0 7.0
05/05:51am SW 20 30 - - - - 10 Mostly clear - 14.8 1005.3 7.0
05/05:45am SW 23 30 - - - - 10 Mostly clear - 14.9 1004.6 7.0
05/05:41am WSW 24 30 - - - - 10 Partly cloudy - 15.1 1004.1 7.0
05/05:30am W 21 29 - - - - 10 Partly cloudy - 14.9 1003.0 7.0
05/05:26am WNW 20 28 - - - - 9 Partly cloudy - 15.1 1002.7 7.0
05/05:20am NNW 19 28 - - - - 9 Partly cloudy - 15.0 1002.8 7.0
05/05:03am N 17 27 - - - - 10 Partly cloudy - 14.8 1003.6 6.4
05/05:00am NNE 19 42 - - - - 10 Partly cloudy - 14.7 1003.8 6.0
05/04:59am NNE 19 42 - - - - 10 Partly cloudy - 14.6 1003.9 6.0
05/04:51am NNE 20 42 - - - - 4 Partly cloudy - 13.8 1004.2 6.0
05/04:46am NE 19 31 - - - - 3 Partly cloudy - 13.7 1004.5 5.8
05/04:30am NNE 14 22 - - - - 5 Partly cloudy - 13.9 1005.5 2.2
05/04:00am N 14 21 - - - - 10 Partly cloudy - 14.8 1006.8 0.0
05/03:30am N 11 18 - - - - 10 Mostly clear - 15.3 1007.2 0.0
05/03:00am NNW 11 18 - - - - 10 Cloudy - 15.6 1007.8 0.0
05/02:34am NNW 16 26 - - - - 10 Mostly clear - 15.6 1008.0 0.0
05/02:30am NNW 16 22 - - - - 10 Mostly clear - 15.8 1008.1 0.0
05/02:00am NNW 11 19 - - - - 10 Mostly clear - 15.8 1008.4 0.0
05/01:30am NNW 11 17 - - - - 10 Mostly clear - 16.0 1008.7 0.0
05/01:00am NNW 11 20 - - - - 10 Mostly clear - 16.5 1008.9 0.0
05/12:30am NNW 10 14 - - - - 10 Mostly clear - 16.6 1009.2 0.0
05/12:00am NNW 13 18 - - - - 10 Mostly clear - 16.5 1009.3 0.0
 
Date/Time
EST
Wind Sea
Height
m
Swell Vis
km
Cloud Weather Temp
°C
Press
MSL
hPa
Rain since
9am
mm
Dir  Spd
kts
Gust
kts
Height
m
Period
s
Dir
04/11:30pm NNW 13 20 - - - - 10 Cloudy - 17.0 1009.5 0.0
04/11:00pm NNW 8 16 - - - - 10 Cloudy - 17.2 1009.7 0.0
04/10:30pm N 9 15 - - - - 10 Mostly clear - 17.2 1010.1 0.0
04/10:00pm N 6 8 - - - - 10 Mostly clear - 16.4 1010.1 0.0
04/09:30pm N 6 8 - - - - 10 Partly cloudy - 16.3 1010.3 0.0
04/09:00pm N 8 15 - - - - 10 Cloudy - 16.5 1010.2 0.0
04/08:30pm NNE 8 9 - - - - 10 Mostly clear - 15.9 1009.9 0.0
04/08:00pm NNE 10 14 - - - - 10 Partly cloudy - 15.8 1009.9 0.0
04/07:30pm NNE 10 13 - - - - 10 Cloudy - 15.4 1010.0 0.0
04/07:00pm NNE 11 13 - - - - 10 Cloudy - 15.1 1010.2 0.0
04/06:30pm NNE 11 13 - - - - 10 - - 14.7 1010.1 0.0
04/06:00pm NNE 11 13 - - - - 10 - - 15.0 1009.9 0.0
04/05:30pm NNE 10 13 - - - - 10 - - 15.7 1009.7 0.0
04/05:00pm NNE 9 12 - - - - 10 - - 16.5 1009.6 0.0
04/04:30pm N 8 14 - - - - 10 Partly cloudy - 17.6 1009.5 0.0
04/04:00pm NNW 9 15 - - - - 10 Partly cloudy - 18.5 1009.4 0.0
04/03:30pm NNW 9 14 - - - - 10 Mostly clear - 19.0 1009.5 0.0
04/03:00pm NNW 11 16 - - - - 10 - - 19.4 1009.4 0.0
04/02:30pm NNW 12 16 - - - - 10 - - 19.3 1009.6 0.0
04/02:00pm NNW 12 18 - - - - 10 - - 20.0 1009.7 0.0
04/01:30pm NW 12 17 - - - - 10 - - 19.1 1009.9 0.0
04/01:00pm NW 14 18 - - - - 10 - - 19.1 1010.2 0.0
04/12:30pm NW 13 18 - - - - 10 - - 19.0 1010.5 0.0
04/12:00pm NW 11 17 - - - - 10 - - 19.5 1011.0 0.0
04/11:30am NW 11 16 - - - - 10 - - 18.6 1011.5 0.0
04/11:00am NNW 12 16 - - - - 10 - - 18.6 1011.8 0.0
04/10:30am NW 11 16 - - - - 10 Mostly clear - 18.2 1012.1 0.0
04/10:00am NW 11 14 - - - - 10 Cloudy - 17.4 1012.2 0.0
04/09:30am NW 7 10 - - - - 10 Partly cloudy - 17.0 1012.3 0.0
04/09:00am NW 7 10 - - - - 10 Mostly clear Recent precip. 17.1 1012.4 12.6
04/08:30am NNW 5 8 - - - - 10 Mostly clear - 16.3 1012.1 12.4
04/08:00am N 6 8 - - - - 10 Mostly clear - 15.5 1011.8 12.4
04/07:30am NW 7 8 - - - - 10 Partly cloudy - 14.4 1011.7 12.4
04/07:00am NNW 7 9 - - - - 10 - - 14.0 1011.5 12.4
04/06:30am NNW 6 8 - - - - 10 - - 14.1 1011.3 12.4
04/06:00am NNW 6 8 - - - - 10 - - 14.4 1011.3 12.4
04/05:30am NNW 7 9 - - - - 10 - - 14.8 1011.0 12.4
04/05:00am NNW 6 8 - - - - 10 - - 14.8 1011.0 12.4
04/04:30am NNW 5 6 - - - - 10 - - 15.0 1010.8 12.4
04/04:00am NNW 7 10 - - - - 10 - - 15.2 1010.8 12.4
04/03:30am NNW 7 9 - - - - 10 Partly cloudy - 15.1 1010.7 12.4
04/03:00am NNW 6 9 - - - - 10 Cloudy - 15.0 1010.9 12.4
04/02:30am NNW 7 10 - - - - 10 Partly cloudy - 15.1 1011.4 12.4
04/02:00am NNW 6 9 - - - - 10 - - 15.1 1011.2 12.4
04/01:30am NNW 8 11 - - - - 10 - - 14.7 1012.1 12.4
04/01:00am N 4 5 - - - - 10 Mostly clear - 14.0 1011.7 12.4
04/12:30am N 6 10 - - - - 10 Partly cloudy - 14.3 1012.0 12.4
04/12:00am NNW 7 9 - - - - 10 Cloudy Rain 13.6 1011.5 12.4
 
Date/Time
EST
Wind Sea
Height
m
Swell Vis
km
Cloud Weather Temp
°C
Press
MSL
hPa
Rain since
9am
mm
Dir  Spd
kts
Gust
kts
Height
m
Period
s
Dir
03/11:30pm NNW 9 13 - - - - 10 Mostly clear - 13.9 1011.4 12.4
03/11:00pm NW 10 13 - - - - 10 Mostly clear - 16.1 1012.1 11.4
03/10:42pm NW 7 9 - - - - 9 Mostly clear - 16.1 1011.9 10.6
03/10:41pm NW 7 9 - - - - 8 Partly cloudy - 16.1 1011.9 10.4
03/10:30pm NW 8 13 - - - - 4 Partly cloudy - 16.2 1012.0 9.8
03/10:18pm NW 10 14 - - - - 5 Partly cloudy - 16.4 1012.3 8.2
03/10:02pm NW 9 12 - - - - 10 Partly cloudy - 17.3 1012.2 6.8
03/10:00pm NW 9 12 - - - - 10 Partly cloudy - 17.5 1012.2 6.6
03/09:35pm NNE 18 28 - - - - 10 Mostly clear - 17.9 1011.9 6.4
03/09:30pm NNE 20 28 - - - - 10 Mostly clear - 17.8 1011.5 6.4
03/09:00pm NNE 20 30 - - - - 10 Mostly cloudy Showers 18.5 1011.8 3.8
03/08:58pm NNE 20 30 - - - - 10 Cloudy - 18.5 1011.7 3.8
03/08:30pm NNE 22 30 - - - - 10 Partly cloudy - 19.0 1010.8 3.2
03/08:00pm NE 25 36 - - - - 10 Mostly clear - 19.6 1009.8 3.2
03/07:56pm NE 22 35 - - - - 10 Partly cloudy - 19.9 1010.1 3.2

Other formats

Comma delimited format used in spreadsheet applications
http://www.bom.gov.au/fwo/IDT60701/IDT60701.94980.axf

JavaScript Object Notation format (JSON) in row-major order
http://www.bom.gov.au/fwo/IDT60701/IDT60701.94980.json

Data quality

Most of these data are generated automatically and are frequently updated. Quality checks on data are not normally performed. It is possible for incorrect values to appear. Refer to information at About Latest Weather Observations and please check the disclaimer before using these data.